ROMMA est une association bénévole à but non lucratif. Votre soutien est indispensable : ADHERER à ROMMA ou FAIRE un DON

Miribel-les-Echelles - (38, Isère)

Massif de la Chartreuse (760 m)   Longitude: 05° 41' 54'' E   Latitude: 45° 26' 40'' N Station partenaire n°22
 

Détail journalier du     <<     >>

Température Precipitation Humidité Pression Vent Dir Rafale Dir. rafale Ensol.
Heure (°C) (mm) (%) (hPa) (km/h) (km/h) (min)
01:00 12.809110117SO21OSO0
02:00 12.109310102ESE11OSO0
03:00 13.408410116S23SSE0
04:00 13.608410109SO27SSO0
05:00 13.808310105SO15S0
06:00 12.8090101010SO19SO0
07:00 12.409310102SSE18SO0
08:00 12.309310106E24O0
09:00 12.209510102SSE10O0
10:00 13.209210092SE18SSE0
11:00 15.608110096SO23SO0
12:00 15.908410096E21S30
13:00 16.707310088S39SSE0
14:00 17.3071100712SO35SSE0
15:00 17.8066100714SO31SO0
16:00 18.0064100713SO35OSO0
17:00 18.1065100713SO40SSE0
18:00 17.6068100711SO29SSE0
19:00 17.5067100714SO39SO0
20:00 17.7067100714S32SO0
21:00 17.9065100715S42SSE0
22:00 18.0063100715S47S0
23:00 18.2062100721S55SSE0
minuit 17.7063100618S52SO0

Graphique du 19-10-2019

 

Serveur OMMA